sensor_id;sensor_type;location;lat;lon;timestamp;pressure;altitude;pressure_sealevel;temperature;humidity
11525;BME280;5819;49.648;8.330;2023-04-25T00:00:24;99786.44;;;9.05;100.00
11525;BME280;5819;49.648;8.330;2023-04-25T00:02:52;99788.41;;;9.00;100.00
11525;BME280;5819;49.648;8.330;2023-04-25T00:05:22;99795.81;;;8.89;100.00
11525;BME280;5819;49.648;8.330;2023-04-25T00:07:52;99803.56;;;8.90;100.00
11525;BME280;5819;49.648;8.330;2023-04-25T00:10:20;99802.75;;;8.88;100.00
11525;BME280;5819;49.648;8.330;2023-04-25T00:12:48;99799.63;;;9.01;100.00
11525;BME280;5819;49.648;8.330;2023-04-25T00:15:16;99794.88;;;9.10;100.00
11525;BME280;5819;49.648;8.330;2023-04-25T00:17:44;99793.94;;;9.11;100.00
11525;BME280;5819;49.648;8.330;2023-04-25T00:20:12;99794.88;;;9.10;100.00
11525;BME280;5819;49.648;8.330;2023-04-25T00:22:40;99804.47;;;9.08;100.00
11525;BME280;5819;49.648;8.330;2023-04-25T00:25:10;99801.81;;;9.10;100.00
11525;BME280;5819;49.648;8.330;2023-04-25T00:27:37;99806.16;;;9.09;100.00
11525;BME280;5819;49.648;8.330;2023-04-25T00:30:07;99812.75;;;8.98;100.00
11525;BME280;5819;49.648;8.330;2023-04-25T00:32:35;99810.28;;;8.95;100.00
11525;BME280;5819;49.648;8.330;2023-04-25T00:35:03;99808.94;;;8.86;100.00
11525;BME280;5819;49.648;8.330;2023-04-25T00:37:32;99812.44;;;8.85;100.00
11525;BME280;5819;49.648;8.330;2023-04-25T00:40:00;99801.78;;;8.91;100.00
11525;BME280;5819;49.648;8.330;2023-04-25T00:42:29;99795.00;;;9.07;100.00
11525;BME280;5819;49.648;8.330;2023-04-25T00:44:59;99792.19;;;9.12;100.00
11525;BME280;5819;49.648;8.330;2023-04-25T00:47:27;99785.06;;;9.17;100.00
11525;BME280;5819;49.648;8.330;2023-04-25T00:49:56;99783.16;;;9.20;100.00
11525;BME280;5819;49.648;8.330;2023-04-25T00:52:24;99785.94;;;9.16;100.00
11525;BME280;5819;49.648;8.330;2023-04-25T00:54:52;99783.22;;;9.19;100.00
11525;BME280;5819;49.648;8.330;2023-04-25T00:57:20;99780.97;;;9.11;100.00
11525;BME280;5819;49.648;8.330;2023-04-25T00:59:51;99778.94;;;8.99;100.00
11525;BME280;5819;49.648;8.330;2023-04-25T01:02:20;99783.06;;;9.03;100.00
11525;BME280;5819;49.648;8.330;2023-04-25T01:04:48;99790.75;;;9.06;100.00
11525;BME280;5819;49.648;8.330;2023-04-25T01:07:16;99780.72;;;8.99;100.00
11525;BME280;5819;49.648;8.330;2023-04-25T01:09:45;99783.22;;;9.00;100.00
11525;BME280;5819;49.648;8.330;2023-04-25T01:12:13;99781.66;;;8.96;100.00
11525;BME280;5819;49.648;8.330;2023-04-25T01:14:43;99779.06;;;8.96;100.00
11525;BME280;5819;49.648;8.330;2023-04-25T01:17:12;99785.16;;;8.95;100.00
11525;BME280;5819;49.648;8.330;2023-04-25T01:19:41;99781.31;;;8.85;100.00
11525;BME280;5819;49.648;8.330;2023-04-25T01:22:11;99786.06;;;8.75;100.00
11525;BME280;5819;49.648;8.330;2023-04-25T01:24:39;99780.81;;;8.77;100.00
11525;BME280;5819;49.648;8.330;2023-04-25T01:27:08;99777.22;;;8.79;100.00
11525;BME280;5819;49.648;8.330;2023-04-25T01:29:36;99776.13;;;8.85;100.00
11525;BME280;5819;49.648;8.330;2023-04-25T01:32:05;99767.50;;;8.84;100.00
11525;BME280;5819;49.648;8.330;2023-04-25T01:34:33;99775.28;;;8.84;100.00
11525;BME280;5819;49.648;8.330;2023-04-25T01:37:02;99771.09;;;8.82;100.00
11525;BME280;5819;49.648;8.330;2023-04-25T01:39:35;99777.16;;;8.81;100.00
11525;BME280;5819;49.648;8.330;2023-04-25T01:42:05;99772.88;;;8.80;100.00
11525;BME280;5819;49.648;8.330;2023-04-25T01:44:33;99778.88;;;8.82;100.00
11525;BME280;5819;49.648;8.330;2023-04-25T01:47:01;99776.28;;;8.82;100.00
11525;BME280;5819;49.648;8.330;2023-04-25T01:49:32;99776.28;;;8.82;100.00
11525;BME280;5819;49.648;8.330;2023-04-25T01:52:01;99771.13;;;8.80;100.00
11525;BME280;5819;49.648;8.330;2023-04-25T01:54:29;99777.22;;;8.79;100.00
11525;BME280;5819;49.648;8.330;2023-04-25T01:56:58;99781.50;;;8.80;100.00
11525;BME280;5819;49.648;8.330;2023-04-25T01:59:27;99783.47;;;8.75;100.00
11525;BME280;5819;49.648;8.330;2023-04-25T02:02:12;99779.25;;;8.73;100.00
11525;BME280;5819;49.648;8.330;2023-04-25T02:04:40;99779.25;;;8.73;100.00
11525;BME280;5819;49.648;8.330;2023-04-25T02:07:08;99775.19;;;8.67;100.00
11525;BME280;5819;49.648;8.330;2023-04-25T02:09:47;99779.84;;;8.59;100.00
11525;BME280;5819;49.648;8.330;2023-04-25T02:12:18;99778.81;;;8.63;100.00
11525;BME280;5819;49.648;8.330;2023-04-25T02:15:06;99777.19;;;8.61;100.00
11525;BME280;5819;49.648;8.330;2023-04-25T02:17:41;99783.22;;;8.61;100.00
11525;BME280;5819;49.648;8.330;2023-04-25T02:20:11;99783.28;;;8.60;100.00
11525;BME280;5819;49.648;8.330;2023-04-25T02:22:39;99770.31;;;8.60;100.00
11525;BME280;5819;49.648;8.330;2023-04-25T02:25:08;99773.56;;;8.65;100.00
11525;BME280;5819;49.648;8.330;2023-04-25T02:27:37;99773.50;;;8.66;100.00
11525;BME280;5819;49.648;8.330;2023-04-25T02:30:07;99773.44;;;8.68;100.00
11525;BME280;5819;49.648;8.330;2023-04-25T02:32:35;99772.66;;;8.66;100.00
11525;BME280;5819;49.648;8.330;2023-04-25T02:35:04;99768.03;;;8.54;100.00
11525;BME280;5819;49.648;8.330;2023-04-25T02:37:33;99770.72;;;8.51;100.00
11525;BME280;5819;49.648;8.330;2023-04-25T02:40:01;99764.78;;;8.49;100.00
11525;BME280;5819;49.648;8.330;2023-04-25T02:42:31;99769.75;;;8.53;100.00
11525;BME280;5819;49.648;8.330;2023-04-25T02:45:00;99772.22;;;8.56;100.00
11525;BME280;5819;49.648;8.330;2023-04-25T02:47:28;99766.19;;;8.56;100.00
11525;BME280;5819;49.648;8.330;2023-04-25T02:49:57;99769.56;;;8.58;100.00
11525;BME280;5819;49.648;8.330;2023-04-25T02:52:25;99771.22;;;8.59;100.00
11525;BME280;5819;49.648;8.330;2023-04-25T02:55:02;99767.75;;;8.60;100.00
11525;BME280;5819;49.648;8.330;2023-04-25T02:57:31;99755.63;;;8.60;100.00
11525;BME280;5819;49.648;8.330;2023-04-25T03:00:03;99764.88;;;8.66;100.00
11525;BME280;5819;49.648;8.330;2023-04-25T03:02:32;99765.78;;;8.65;100.00
11525;BME280;5819;49.648;8.330;2023-04-25T03:05:00;99762.31;;;8.66;100.00
11525;BME280;5819;49.648;8.330;2023-04-25T03:07:30;99757.13;;;8.66;100.00
11525;BME280;5819;49.648;8.330;2023-04-25T03:09:58;99761.44;;;8.65;100.00
11525;BME280;5819;49.648;8.330;2023-04-25T03:12:29;99759.81;;;8.63;100.00
11525;BME280;5819;49.648;8.330;2023-04-25T03:14:57;99764.19;;;8.62;100.00
11525;BME280;5819;49.648;8.330;2023-04-25T03:17:26;99753.88;;;8.61;100.00
11525;BME280;5819;49.648;8.330;2023-04-25T03:19:54;99753.09;;;8.59;100.00
11525;BME280;5819;49.648;8.330;2023-04-25T03:22:22;99752.28;;;8.58;100.00
11525;BME280;5819;49.648;8.330;2023-04-25T03:24:50;99753.94;;;8.59;100.00
11525;BME280;5819;49.648;8.330;2023-04-25T03:27:19;99750.50;;;8.59;100.00
11525;BME280;5819;49.648;8.330;2023-04-25T03:29:46;99756.59;;;8.58;100.00
11525;BME280;5819;49.648;8.330;2023-04-25T03:32:14;99750.50;;;8.59;100.00
11525;BME280;5819;49.648;8.330;2023-04-25T03:34:43;99752.19;;;8.60;100.00
11525;BME280;5819;49.648;8.330;2023-04-25T03:37:11;99757.50;;;8.57;100.00
11525;BME280;5819;49.648;8.330;2023-04-25T03:39:39;99754.91;;;8.57;100.00
11525;BME280;5819;49.648;8.330;2023-04-25T03:42:07;99756.94;;;8.50;100.00
11525;BME280;5819;49.648;8.330;2023-04-25T03:44:35;99762.38;;;8.44;100.00
11525;BME280;5819;49.648;8.330;2023-04-25T03:47:04;99761.19;;;8.51;100.00
11525;BME280;5819;49.648;8.330;2023-04-25T03:49:32;99759.41;;;8.53;100.00
11525;BME280;5819;49.648;8.330;2023-04-25T03:52:03;99760.44;;;8.49;100.00
11525;BME280;5819;49.648;8.330;2023-04-25T03:54:37;99760.78;;;8.41;100.00
11525;BME280;5819;49.648;8.330;2023-04-25T03:57:09;99764.97;;;8.44;100.00
11525;BME280;5819;49.648;8.330;2023-04-25T03:59:38;99771.75;;;8.46;100.00
11525;BME280;5819;49.648;8.330;2023-04-25T04:02:10;99775.16;;;8.49;100.00
11525;BME280;5819;49.648;8.330;2023-04-25T04:04:39;99772.59;;;8.47;100.00
11525;BME280;5819;49.648;8.330;2023-04-25T04:07:09;99770.22;;;8.42;100.00
11525;BME280;5819;49.648;8.330;2023-04-25T04:09:40;99771.00;;;8.44;100.00
11525;BME280;5819;49.648;8.330;2023-04-25T04:12:13;99774.50;;;8.43;100.00
11525;BME280;5819;49.648;8.330;2023-04-25T04:14:41;99774.56;;;8.42;100.00
11525;BME280;5819;49.648;8.330;2023-04-25T04:17:09;99777.88;;;8.45;100.00
11525;BME280;5819;49.648;8.330;2023-04-25T04:19:37;99781.22;;;8.48;100.00
11525;BME280;5819;49.648;8.330;2023-04-25T04:22:11;99780.56;;;8.42;100.00
11525;BME280;5819;49.648;8.330;2023-04-25T04:24:39;99792.72;;;8.42;100.00
11525;BME280;5819;49.648;8.330;2023-04-25T04:27:13;99781.75;;;8.35;100.00
11525;BME280;5819;49.648;8.330;2023-04-25T04:30:05;99786.94;;;8.35;100.00
11525;BME280;5819;49.648;8.330;2023-04-25T04:32:38;99786.94;;;8.35;100.00
11525;BME280;5819;49.648;8.330;2023-04-25T04:35:07;99787.63;;;8.39;100.00
11525;BME280;5819;49.648;8.330;2023-04-25T04:37:37;99786.88;;;8.37;100.00
11525;BME280;5819;49.648;8.330;2023-04-25T04:40:11;99789.47;;;8.37;100.00
11525;BME280;5819;49.648;8.330;2023-04-25T04:42:46;99785.97;;;8.38;100.00
11525;BME280;5819;49.648;8.330;2023-04-25T04:45:46;99797.25;;;8.37;100.00
11525;BME280;5819;49.648;8.330;2023-04-25T04:48:23;99802.44;;;8.37;100.00
11525;BME280;5819;49.648;8.330;2023-04-25T04:51:00;99804.69;;;8.44;100.00
11525;BME280;5819;49.648;8.330;2023-04-25T04:53:38;99809.88;;;8.44;100.00
11525;BME280;5819;49.648;8.330;2023-04-25T04:56:12;99807.75;;;8.54;100.00
11525;BME280;5819;49.648;8.330;2023-04-25T04:58:52;99813.63;;;8.58;100.00
11525;BME280;5819;49.648;8.330;2023-04-25T05:01:38;99812.66;;;8.60;100.00
11525;BME280;5819;49.648;8.330;2023-04-25T05:04:40;99808.44;;;8.58;100.00
11525;BME280;5819;49.648;8.330;2023-04-25T05:07:27;99810.72;;;8.65;100.00
11525;BME280;5819;49.648;8.330;2023-04-25T05:10:10;99816.66;;;8.67;100.00
11525;BME280;5819;49.648;8.330;2023-04-25T05:13:02;99823.69;;;8.65;100.00
11525;BME280;5819;49.648;8.330;2023-04-25T05:15:48;99824.84;;;8.78;100.00
11525;BME280;5819;49.648;8.330;2023-04-25T05:18:39;99818.53;;;8.84;100.00
11525;BME280;5819;49.648;8.330;2023-04-25T05:21:21;99830.53;;;8.86;100.00
11525;BME280;5819;49.648;8.330;2023-04-25T05:24:09;99834.97;;;8.83;100.00
11525;BME280;5819;49.648;8.330;2023-04-25T05:26:38;99837.47;;;8.86;100.00
11525;BME280;5819;49.648;8.330;2023-04-25T05:29:26;99832.78;;;8.94;100.00
11525;BME280;5819;49.648;8.330;2023-04-25T05:32:14;99833.75;;;8.91;100.00
11525;BME280;5819;49.648;8.330;2023-04-25T05:34:42;99833.69;;;8.93;100.00
11525;BME280;5819;49.648;8.330;2023-04-25T05:37:19;99836.69;;;8.84;100.00
11525;BME280;5819;49.648;8.330;2023-04-25T05:39:54;99834.38;;;8.97;100.00
11525;BME280;5819;49.648;8.330;2023-04-25T05:42:31;99840.03;;;9.06;100.00
11525;BME280;5819;49.648;8.330;2023-04-25T05:45:18;99844.50;;;9.03;100.00
11525;BME280;5819;49.648;8.330;2023-04-25T05:48:07;99853.78;;;8.88;100.00
11525;BME280;5819;49.648;8.330;2023-04-25T05:50:43;99852.22;;;9.04;100.00
11525;BME280;5819;49.648;8.330;2023-04-25T05:53:22;99851.13;;;8.89;100.00
11525;BME280;5819;49.648;8.330;2023-04-25T05:55:58;99856.50;;;9.05;100.00
11525;BME280;5819;49.648;8.330;2023-04-25T05:58:29;99851.13;;;8.89;100.00
11525;BME280;5819;49.648;8.330;2023-04-25T06:00:58;99860.66;;;8.89;100.00
11525;BME280;5819;49.648;8.330;2023-04-25T06:03:28;99855.63;;;8.86;100.00
11525;BME280;5819;49.648;8.330;2023-04-25T06:05:57;99850.31;;;9.08;100.00
11525;BME280;5819;49.648;8.330;2023-04-25T06:08:26;99860.28;;;8.98;100.00
11525;BME280;5819;49.648;8.330;2023-04-25T06:10:54;99860.63;;;8.90;100.00
11525;BME280;5819;49.648;8.330;2023-04-25T06:13:22;99861.38;;;8.72;100.00
11525;BME280;5819;49.648;8.330;2023-04-25T06:15:52;99864.53;;;8.79;100.00
11525;BME280;5819;49.648;8.330;2023-04-25T06:18:19;99871.06;;;8.69;100.00
11525;BME280;5819;49.648;8.330;2023-04-25T06:20:47;99872.59;;;8.53;100.00
11525;BME280;5819;49.648;8.330;2023-04-25T06:23:17;99872.03;;;8.46;100.00
11525;BME280;5819;49.648;8.330;2023-04-25T06:25:51;99869.44;;;8.46;100.00
11525;BME280;5819;49.648;8.330;2023-04-25T06:28:20;99880.25;;;8.56;100.00
11525;BME280;5819;49.648;8.330;2023-04-25T06:30:51;99873.38;;;8.55;100.00
11525;BME280;5819;49.648;8.330;2023-04-25T06:33:19;99877.13;;;8.48;100.00
11525;BME280;5819;49.648;8.330;2023-04-25T06:35:48;99885.41;;;8.35;100.00
11525;BME280;5819;49.648;8.330;2023-04-25T06:38:22;99884.63;;;8.33;100.00
11525;BME280;5819;49.648;8.330;2023-04-25T06:40:51;99890.16;;;8.46;100.00
11525;BME280;5819;49.648;8.330;2023-04-25T06:43:19;99890.78;;;8.51;100.00
11525;BME280;5819;49.648;8.330;2023-04-25T06:46:03;99890.09;;;8.48;100.00
11525;BME280;5819;49.648;8.330;2023-04-25T06:48:38;99893.66;;;8.45;100.00
11525;BME280;5819;49.648;8.330;2023-04-25T06:51:06;99903.72;;;8.31;100.00
11525;BME280;5819;49.648;8.330;2023-04-25T06:53:35;99908.63;;;8.38;100.00
11525;BME280;5819;49.648;8.330;2023-04-25T06:56:06;99909.75;;;8.53;100.00
11525;BME280;5819;49.648;8.330;2023-04-25T06:58:44;99922.59;;;8.34;100.00
11525;BME280;5819;49.648;8.330;2023-04-25T07:01:20;99919.88;;;8.37;100.00
11525;BME280;5819;49.648;8.330;2023-04-25T07:03:48;99919.97;;;8.56;100.00
11525;BME280;5819;49.648;8.330;2023-04-25T07:06:17;99921.84;;;8.53;100.00
11525;BME280;5819;49.648;8.330;2023-04-25T07:08:46;99923.34;;;8.58;100.00
11525;BME280;5819;49.648;8.330;2023-04-25T07:11:14;99920.38;;;8.67;100.00
11525;BME280;5819;49.648;8.330;2023-04-25T07:13:43;99924.47;;;8.73;100.00
11525;BME280;5819;49.648;8.330;2023-04-25T07:16:11;99926.22;;;8.92;100.00
11525;BME280;5819;49.648;8.330;2023-04-25T07:18:41;99923.63;;;8.72;100.00
11525;BME280;5819;49.648;8.330;2023-04-25T07:21:09;99931.44;;;8.71;100.00
11525;BME280;5819;49.648;8.330;2023-04-25T07:23:37;99926.16;;;8.74;100.00
11525;BME280;5819;49.648;8.330;2023-04-25T07:26:11;99927.72;;;8.98;100.00
11525;BME280;5819;49.648;8.330;2023-04-25T07:28:54;99924.94;;;9.03;100.00
11525;BME280;5819;49.648;8.330;2023-04-25T07:31:24;99925.50;;;9.48;100.00
11525;BME280;5819;49.648;8.330;2023-04-25T07:33:53;99924.88;;;10.18;100.00
11525;BME280;5819;49.648;8.330;2023-04-25T07:36:21;99914.34;;;10.21;100.00
11525;BME280;5819;49.648;8.330;2023-04-25T07:38:49;99917.16;;;10.16;100.00
11525;BME280;5819;49.648;8.330;2023-04-25T07:41:18;99913.91;;;9.93;100.00
11525;BME280;5819;49.648;8.330;2023-04-25T07:43:46;99923.25;;;10.15;100.00
11525;BME280;5819;49.648;8.330;2023-04-25T07:46:14;99925.09;;;9.95;98.83
11525;BME280;5819;49.648;8.330;2023-04-25T07:48:42;99932.72;;;9.60;100.00
11525;BME280;5819;49.648;8.330;2023-04-25T07:51:11;99934.56;;;9.58;100.00
11525;BME280;5819;49.648;8.330;2023-04-25T07:53:39;99935.56;;;9.35;100.00
11525;BME280;5819;49.648;8.330;2023-04-25T07:56:11;99946.41;;;9.45;100.00
11525;BME280;5819;49.648;8.330;2023-04-25T07:58:42;99950.69;;;9.46;100.00
11525;BME280;5819;49.648;8.330;2023-04-25T08:01:12;99947.97;;;9.49;100.00
11525;BME280;5819;49.648;8.330;2023-04-25T08:03:48;99951.25;;;9.53;100.00
11525;BME280;5819;49.648;8.330;2023-04-25T08:06:26;99952.47;;;9.83;100.00
11525;BME280;5819;49.648;8.330;2023-04-25T08:09:03;99961.69;;;9.90;99.41
11525;BME280;5819;49.648;8.330;2023-04-25T08:11:36;99959.91;;;10.28;99.13
11525;BME280;5819;49.648;8.330;2023-04-25T08:14:07;99961.50;;;10.49;93.89
11525;BME280;5819;49.648;8.330;2023-04-25T08:16:36;99960.84;;;10.44;96.52
11525;BME280;5819;49.648;8.330;2023-04-25T08:19:04;99962.88;;;10.56;97.28
11525;BME280;5819;49.648;8.330;2023-04-25T08:21:34;99971.09;;;10.47;95.61
11525;BME280;5819;49.648;8.330;2023-04-25T08:24:06;99964.50;;;10.76;93.28
11525;BME280;5819;49.648;8.330;2023-04-25T08:26:37;99967.84;;;10.61;96.05
11525;BME280;5819;49.648;8.330;2023-04-25T08:29:06;99971.03;;;10.49;95.25
11525;BME280;5819;49.648;8.330;2023-04-25T08:31:38;99986.09;;;10.42;91.80
11525;BME280;5819;49.648;8.330;2023-04-25T08:34:07;99987.03;;;10.41;92.15
11525;BME280;5819;49.648;8.330;2023-04-25T08:36:46;99993.38;;;10.53;92.04
11525;BME280;5819;49.648;8.330;2023-04-25T08:39:37;99998.00;;;10.65;86.53
11525;BME280;5819;49.648;8.330;2023-04-25T08:42:24;100004.78;;;10.13;88.76
11525;BME280;5819;49.648;8.330;2023-04-25T08:44:53;100009.34;;;9.89;92.64
11525;BME280;5819;49.648;8.330;2023-04-25T08:47:27;100005.69;;;9.93;93.71
11525;BME280;5819;49.648;8.330;2023-04-25T08:49:58;100014.16;;;10.17;93.66
11525;BME280;5819;49.648;8.330;2023-04-25T08:52:34;100012.44;;;9.78;96.16
11525;BME280;5819;49.648;8.330;2023-04-25T08:55:05;100012.09;;;10.05;95.51
11525;BME280;5819;49.648;8.330;2023-04-25T08:57:35;100022.69;;;10.00;93.35
11525;BME280;5819;49.648;8.330;2023-04-25T09:00:04;100019.59;;;9.92;94.55
11525;BME280;5819;49.648;8.330;2023-04-25T09:02:35;100026.44;;;9.95;97.65
11525;BME280;5819;49.648;8.330;2023-04-25T09:05:04;100028.47;;;10.07;99.26
11525;BME280;5819;49.648;8.330;2023-04-25T09:07:34;100031.22;;;10.41;96.62
11525;BME280;5819;49.648;8.330;2023-04-25T09:10:03;100022.41;;;10.62;92.24
11525;BME280;5819;49.648;8.330;2023-04-25T09:12:35;100024.91;;;10.64;91.99
11525;BME280;5819;49.648;8.330;2023-04-25T09:15:06;100026.81;;;10.79;91.39
11525;BME280;5819;49.648;8.330;2023-04-25T09:17:55;100025.66;;;10.85;92.75
11525;BME280;5819;49.648;8.330;2023-04-25T09:20:28;100023.00;;;11.38;87.25
11525;BME280;5819;49.648;8.330;2023-04-25T09:23:05;100020.34;;;11.72;86.07
11525;BME280;5819;49.648;8.330;2023-04-25T09:25:37;100028.53;;;11.64;84.27
11525;BME280;5819;49.648;8.330;2023-04-25T09:28:08;100024.06;;;11.51;88.64
11525;BME280;5819;49.648;8.330;2023-04-25T09:30:37;100023.34;;;11.97;85.00
11525;BME280;5819;49.648;8.330;2023-04-25T09:33:18;100027.81;;;11.95;81.99
11525;BME280;5819;49.648;8.330;2023-04-25T09:35:49;100026.56;;;12.34;80.06
11525;BME280;5819;49.648;8.330;2023-04-25T09:38:41;100034.97;;;12.07;79.30
11525;BME280;5819;49.648;8.330;2023-04-25T09:41:26;100037.69;;;11.89;76.90
11525;BME280;5819;49.648;8.330;2023-04-25T09:43:58;100044.28;;;11.96;76.50
11525;BME280;5819;49.648;8.330;2023-04-25T09:46:35;100053.81;;;11.80;75.99
11525;BME280;5819;49.648;8.330;2023-04-25T09:49:30;100048.09;;;12.22;75.28
11525;BME280;5819;49.648;8.330;2023-04-25T09:52:05;100044.47;;;12.87;75.37
11525;BME280;5819;49.648;8.330;2023-04-25T09:54:43;100059.81;;;12.46;75.66
11525;BME280;5819;49.648;8.330;2023-04-25T09:57:16;100058.53;;;12.37;74.28
11525;BME280;5819;49.648;8.330;2023-04-25T09:59:46;100057.69;;;12.52;75.33
11525;BME280;5819;49.648;8.330;2023-04-25T10:02:17;100059.63;;;12.49;76.88
11525;BME280;5819;49.648;8.330;2023-04-25T10:04:49;100067.25;;;12.05;77.48
11525;BME280;5819;49.648;8.330;2023-04-25T10:07:33;100065.84;;;11.99;75.97
11525;BME280;5819;49.648;8.330;2023-04-25T10:10:12;100076.59;;;11.59;77.59
11525;BME280;5819;49.648;8.330;2023-04-25T10:12:41;100076.28;;;11.48;76.52
11525;BME280;5819;49.648;8.330;2023-04-25T10:15:10;100079.22;;;11.42;74.45
11525;BME280;5819;49.648;8.330;2023-04-25T10:17:39;100082.81;;;11.39;76.80
11525;BME280;5819;49.648;8.330;2023-04-25T10:20:08;100084.84;;;11.15;77.03
11525;BME280;5819;49.648;8.330;2023-04-25T10:22:41;100082.34;;;11.14;77.44
11525;BME280;5819;49.648;8.330;2023-04-25T10:25:11;100090.47;;;10.89;79.30
11525;BME280;5819;49.648;8.330;2023-04-25T10:27:39;100092.13;;;10.73;80.64
11525;BME280;5819;49.648;8.330;2023-04-25T10:30:08;100098.06;;;10.58;81.25
11525;BME280;5819;49.648;8.330;2023-04-25T10:32:41;100101.13;;;10.66;80.55
11525;BME280;5819;49.648;8.330;2023-04-25T10:35:11;100102.19;;;10.62;80.80
11525;BME280;5819;49.648;8.330;2023-04-25T10:37:57;100109.84;;;10.65;80.21
11525;BME280;5819;49.648;8.330;2023-04-25T10:40:27;100107.19;;;10.66;82.72
11525;BME280;5819;49.648;8.330;2023-04-25T10:42:55;100108.47;;;10.58;82.83
11525;BME280;5819;49.648;8.330;2023-04-25T10:45:23;100111.41;;;10.50;83.40
11525;BME280;5819;49.648;8.330;2023-04-25T10:47:51;100111.25;;;10.72;83.64
11525;BME280;5819;49.648;8.330;2023-04-25T10:50:19;100111.84;;;10.96;81.19
11525;BME280;5819;49.648;8.330;2023-04-25T10:52:47;100109.19;;;10.97;79.73
11525;BME280;5819;49.648;8.330;2023-04-25T10:55:15;100118.03;;;10.93;77.92
11525;BME280;5819;49.648;8.330;2023-04-25T10:57:45;100119.53;;;11.16;79.22
11525;BME280;5819;49.648;8.330;2023-04-25T11:00:16;100115.13;;;11.18;78.51
11525;BME280;5819;49.648;8.330;2023-04-25T11:02:46;100109.84;;;11.37;77.49
11525;BME280;5819;49.648;8.330;2023-04-25T11:05:29;100121.56;;;11.45;76.73
11525;BME280;5819;49.648;8.330;2023-04-25T11:07:58;100116.41;;;11.44;77.81
11525;BME280;5819;49.648;8.330;2023-04-25T11:10:34;100113.53;;;11.67;79.85
11525;BME280;5819;49.648;8.330;2023-04-25T11:13:04;100115.25;;;12.01;77.26
11525;BME280;5819;49.648;8.330;2023-04-25T11:15:32;100111.25;;;11.78;74.43
11525;BME280;5819;49.648;8.330;2023-04-25T11:18:00;100106.78;;;11.80;77.15
11525;BME280;5819;49.648;8.330;2023-04-25T11:20:28;100109.06;;;12.03;73.62
11525;BME280;5819;49.648;8.330;2023-04-25T11:22:57;100095.66;;;12.27;73.20
11525;BME280;5819;49.648;8.330;2023-04-25T11:25:26;100109.88;;;12.52;71.93
11525;BME280;5819;49.648;8.330;2023-04-25T11:27:55;100101.28;;;12.97;72.50
11525;BME280;5819;49.648;8.330;2023-04-25T11:30:26;100099.69;;;13.40;72.55
11525;BME280;5819;49.648;8.330;2023-04-25T11:32:53;100095.44;;;13.39;68.83
11525;BME280;5819;49.648;8.330;2023-04-25T11:35:22;100100.81;;;12.91;68.41
11525;BME280;5819;49.648;8.330;2023-04-25T11:37:52;100104.84;;;12.81;70.36
11525;BME280;5819;49.648;8.330;2023-04-25T11:40:20;100107.69;;;12.45;73.62
11525;BME280;5819;49.648;8.330;2023-04-25T11:42:48;100107.44;;;12.34;74.19
11525;BME280;5819;49.648;8.330;2023-04-25T11:45:22;100115.34;;;12.48;74.67
11525;BME280;5819;49.648;8.330;2023-04-25T11:47:52;100110.06;;;12.49;73.94
11525;BME280;5819;49.648;8.330;2023-04-25T11:50:20;100103.19;;;12.80;73.68
11525;BME280;5819;49.648;8.330;2023-04-25T11:52:48;100107.91;;;12.25;75.33
11525;BME280;5819;49.648;8.330;2023-04-25T11:55:18;100122.09;;;12.03;74.62
11525;BME280;5819;49.648;8.330;2023-04-25T11:57:47;100117.97;;;11.99;71.82
11525;BME280;5819;49.648;8.330;2023-04-25T12:00:18;100126.00;;;11.60;72.89
11525;BME280;5819;49.648;8.330;2023-04-25T12:02:47;100119.34;;;11.72;75.07
11525;BME280;5819;49.648;8.330;2023-04-25T12:05:23;100125.09;;;11.61;77.47
11525;BME280;5819;49.648;8.330;2023-04-25T12:07:54;100125.41;;;11.72;77.55
11525;BME280;5819;49.648;8.330;2023-04-25T12:10:24;100131.47;;;11.90;75.72
11525;BME280;5819;49.648;8.330;2023-04-25T12:12:52;100127.50;;;11.83;75.02
11525;BME280;5819;49.648;8.330;2023-04-25T12:15:24;100126.31;;;12.06;73.52
11525;BME280;5819;49.648;8.330;2023-04-25T12:17:53;100127.59;;;12.14;76.32
11525;BME280;5819;49.648;8.330;2023-04-25T12:20:25;100131.94;;;12.31;74.51
11525;BME280;5819;49.648;8.330;2023-04-25T12:22:53;100119.16;;;12.42;73.26
11525;BME280;5819;49.648;8.330;2023-04-25T12:25:35;100113.34;;;12.84;72.47
11525;BME280;5819;49.648;8.330;2023-04-25T12:28:13;100129.56;;;12.27;74.20
11525;BME280;5819;49.648;8.330;2023-04-25T12:30:57;100126.13;;;12.09;74.52
11525;BME280;5819;49.648;8.330;2023-04-25T12:33:27;100127.25;;;12.20;73.43
11525;BME280;5819;49.648;8.330;2023-04-25T12:35:57;100125.34;;;11.91;73.19
11525;BME280;5819;49.648;8.330;2023-04-25T12:38:26;100137.03;;;12.33;72.49
11525;BME280;5819;49.648;8.330;2023-04-25T12:40:56;100133.66;;;12.63;70.15
11525;BME280;5819;49.648;8.330;2023-04-25T12:43:24;100131.78;;;12.50;70.59
11525;BME280;5819;49.648;8.330;2023-04-25T12:45:53;100142.59;;;12.27;71.15
11525;BME280;5819;49.648;8.330;2023-04-25T12:48:22;100149.56;;;12.26;71.27
11525;BME280;5819;49.648;8.330;2023-04-25T12:50:50;100145.44;;;12.22;70.25
11525;BME280;5819;49.648;8.330;2023-04-25T12:53:21;100145.94;;;12.29;71.00
11525;BME280;5819;49.648;8.330;2023-04-25T12:55:49;100147.63;;;11.97;70.89
11525;BME280;5819;49.648;8.330;2023-04-25T12:58:18;100148.97;;;12.21;69.95
11525;BME280;5819;49.648;8.330;2023-04-25T13:00:46;100147.09;;;12.56;70.50
11525;BME280;5819;49.648;8.330;2023-04-25T13:03:14;100143.81;;;12.68;71.51
11525;BME280;5819;49.648;8.330;2023-04-25T13:05:43;100148.28;;;12.66;70.97
11525;BME280;5819;49.648;8.330;2023-04-25T13:08:11;100141.13;;;13.17;72.72
11525;BME280;5819;49.648;8.330;2023-04-25T13:10:41;100136.28;;;13.40;68.31
11525;BME280;5819;49.648;8.330;2023-04-25T13:13:08;100142.75;;;13.03;67.83
11525;BME280;5819;49.648;8.330;2023-04-25T13:15:36;100137.25;;;12.77;70.60
11525;BME280;5819;49.648;8.330;2023-04-25T13:18:04;100149.16;;;12.34;72.37
11525;BME280;5819;49.648;8.330;2023-04-25T13:20:33;100140.47;;;12.17;71.92
11525;BME280;5819;49.648;8.330;2023-04-25T13:23:01;100143.44;;;12.27;72.32
11525;BME280;5819;49.648;8.330;2023-04-25T13:25:29;100145.91;;;12.13;72.55
11525;BME280;5819;49.648;8.330;2023-04-25T13:27:58;100145.09;;;12.28;70.72
11525;BME280;5819;49.648;8.330;2023-04-25T13:30:26;100157.34;;;12.43;72.94